KAPF/APF METAR and TAF weather

Enter ICAO airport designator
Station Type Date Time Source
KAPF METAR 2018/06/25 16:53 UTC NOAA

KAPF 251653Z 15004KT 10SM CLR 31/26 A3008 RMK AO2 SLP186 T03110261


Station Type Date Time Source
KAPF Decoded METAR 2018/06/25 16:53 UTC NOAA

NAPLES MUNICIPAL AIRPORT, FL, United States (KAPF) 26-09N 081-46W
Jun 25, 2018 - 12:53 PM EDT / 2018.06.25 1653 UTC
Wind: from the SSE (150 degrees) at 5 MPH (4 KT):0
Visibility: 10 mile(s):0
Sky conditions: clear
Temperature: 88.0 F (31.1 C)
Heat index: 102.6 F (39.2 C):1
Dew Point: 79.0 F (26.1 C)
Relative Humidity: 74%
Pressure (altimeter): 30.08 in. Hg (1018 hPa)
ob: KAPF 251653Z 15004KT 10SM CLR 31/26 A3008 RMK AO2 SLP186 T03110261
cycle: 17

Station Type Date Time Source
KAPF TAF 2018/06/25 15:58 UTC NOAA

TAF
AMD KAPF 251456Z 2515/2612 22010KT P6SM VCTS SCT028CB SCT050 BKN070
FM251700 22010KT P6SM VCTS SCT025CB BKN050
TEMPO 2518/2521 VRB12G25KT 6SM -TSRA BKN025CB
FM252100 13015KT P6SM TS BKN025CB BKN060
FM260000 06005KT P6SM SCT045


Example: see airport list